Atlanta, Mississippi
Current Conditions -  °F | °C
As of 12:15 PM on Sunday 25 Jan 2015 (Local Time) from KSTF Reporting Station
Clear Clear  
Wind Chill: 15°   Ceiling: Unl
Heat Index: 15°   Visibility: 10mi
Dew Point:   Wind: 13mph
Humidity: 45%   Direction: 230°SW
Pressure: 29.76"   Gusts: 24mph
Location:  33.7962°N, 89.0553°W
Report Text: KSTF 251815Z AUTO 23011G21KT 10SM CLR 15/03 A2976 RMK AO2
Loading
Personal Weather Stations






























Interactive Weather Map New forecast layout! Learn more

10-Day Weather Forecast

Advertisements
Track Severe Weather on mobile